Time;durP1;ratioP1;P1;durP2;ratioP2;P2;SDS_P1;SDS_P2;PMS_P1;PMS_P2;Temp;Humidity;BMP_temperature;BMP_pressure;BME280_temperature;BME280_humidity;BME280_pressure;Samples;Min_cycle;Max_cycle;Signal;HPM_P1;HPM_P2
2022/10/05 00:00:50;;;;;;;33.50;18.25;;;333.10;2329.60;;;;;;5054332;28;20028;-81
2022/10/05 00:03:16;;;;;;;27.33;16.42;;;333.10;2329.60;;;;;;5053184;28;20025;-80
2022/10/05 00:05:44;;;;;;;24.20;14.27;;;333.10;2329.60;;;;;;5053001;28;20467;-81
2022/10/05 00:08:16;;;;;;;73.35;33.08;;;333.10;2329.60;;;;;;5053136;28;20032;-80
2022/10/05 00:10:43;;;;;;;42.00;21.57;;;333.00;2329.60;;;;;;5052538;28;20025;-80
2022/10/05 00:13:15;;;;;;;41.10;20.52;;;333.00;2329.60;;;;;;5053015;28;20379;-81
2022/10/05 00:15:42;;;;;;;26.17;14.02;;;333.00;2329.60;;;;;;5052942;28;20036;-80
2022/10/05 00:18:18;;;;;;;31.35;14.70;;;333.00;2329.60;;;;;;5052565;28;20053;-80
2022/10/05 00:20:45;;;;;;;29.83;15.02;;;333.00;2329.60;;;;;;5052986;28;20037;-81
2022/10/05 00:23:29;;;;;;;39.30;17.42;;;332.90;2329.60;;;;;;5054298;28;20033;-81
2022/10/05 00:26:17;;;;;;;27.40;13.77;;;333.00;2329.60;;;;;;5053622;28;20029;-81
2022/10/05 00:28:43;;;;;;;16.13;9.38;;;332.90;2329.60;;;;;;5052989;28;20028;-81
2022/10/05 00:31:29;;;;;;;17.42;9.73;;;332.90;2329.60;;;;;;5051661;28;20487;-84
2022/10/05 00:33:56;;;;;;;14.48;8.70;;;332.80;2329.60;;;;;;5052073;28;20083;-80
2022/10/05 00:36:24;;;;;;;22.10;11.55;;;332.80;2329.60;;;;;;5052452;28;20032;-81
2022/10/05 00:38:51;;;;;;;21.63;12.70;;;332.90;2329.60;;;;;;5053861;28;20028;-80
2022/10/05 00:41:21;;;;;;;19.02;10.70;;;332.80;2329.60;;;;;;5052532;28;20123;-82
2022/10/05 00:44:17;;;;;;;19.20;11.15;;;332.80;2329.60;;;;;;5052689;28;20044;-81
2022/10/05 00:46:43;;;;;;;21.80;9.65;;;332.80;2329.60;;;;;;5052396;28;20489;-81
2022/10/05 00:49:35;;;;;;;21.35;10.95;;;332.90;2329.60;;;;;;5052148;28;20029;-80
2022/10/05 00:52:25;;;;;;;30.00;12.90;;;332.90;2329.60;;;;;;5015282;28;20087;-81
2022/10/05 00:55:06;;;;;;;14.60;9.25;;;332.80;2329.60;;;;;;5052487;28;20040;-80
2022/10/05 00:57:52;;;;;;;14.40;9.73;;;308.10;2304.00;;;;;;5052196;28;20025;-81
2022/10/05 01:00:22;;;;;;;43.42;21.63;;;308.10;2304.00;;;;;;5051339;28;20063;-80
2022/10/05 01:03:05;;;;;;;48.30;22.42;;;307.90;2304.00;;;;;;5052383;28;20086;-81
2022/10/05 01:05:31;;;;;;;;;;;307.70;2304.00;;;;;;5052886;28;20063;-80
2022/10/05 01:08:18;;;;;;;45.13;24.15;;;307.90;2304.00;;;;;;5052047;28;19952;-80
2022/10/05 01:11:01;;;;;;;24.00;14.70;;;307.90;2304.00;;;;;;5052395;28;20028;-80
2022/10/05 01:13:41;;;;;;;71.53;34.67;;;307.60;2304.00;;;;;;5053311;28;20029;-80
2022/10/05 01:16:13;;;;;;;27.83;14.88;;;307.30;2304.00;;;;;;5053829;28;20040;-80
2022/10/05 01:18:48;;;;;;;39.63;19.77;;;307.40;2304.00;;;;;;5053618;28;20372;-80
2022/10/05 01:21:20;;;;;;;39.03;18.98;;;307.40;2304.00;;;;;;5053504;28;20108;-80
2022/10/05 01:24:08;;;;;;;34.70;17.45;;;307.50;2304.00;;;;;;5053136;28;20025;-81
2022/10/05 01:26:50;;;;;;;99.50;46.17;;;307.50;2304.00;;;;;;5052233;28;20074;-80
2022/10/05 01:29:22;;;;;;;65.38;33.13;;;307.50;2304.00;;;;;;5052123;28;20029;-81
2022/10/05 01:32:03;;;;;;;21.03;12.93;;;307.50;2304.00;;;;;;5052238;28;20029;-80
2022/10/05 01:34:42;;;;;;;20.80;12.30;;;307.50;2304.00;;;;;;5051760;28;20276;-80
2022/10/05 01:37:49;;;;;;;20.67;12.80;;;307.50;2304.00;;;;;;5052104;28;20037;-80
2022/10/05 01:40:25;;;;;;;15.45;10.00;;;307.80;2304.00;;;;;;5048932;28;20496;-80
2022/10/05 01:43:25;;;;;;;15.27;10.20;;;282.40;2278.40;;;;;;5048404;28;20057;-80
2022/10/05 01:45:54;;;;;;;16.23;10.38;;;282.10;2278.40;;;;;;5030831;28;20120;-80
2022/10/05 01:48:55;;;;;;;32.53;16.67;;;282.30;2278.40;;;;;;5031724;28;20449;-80
2022/10/05 01:51:55;;;;;;;20.42;12.38;;;282.30;2278.40;;;;;;5033870;28;20025;-81
2022/10/05 01:55:05;;;;;;;19.35;11.73;;;282.40;2278.40;;;;;;5035929;28;20036;-80
2022/10/05 01:57:51;;;;;;;21.13;12.20;;;282.50;2278.40;;;;;;5035566;28;20030;-81
2022/10/05 02:00:18;;;;;;;21.50;13.00;;;282.50;2278.40;;;;;;5035081;28;20030;-81
2022/10/05 02:02:57;;;;;;;24.45;14.35;;;282.50;2278.40;;;;;;5040674;28;20021;-81
2022/10/05 02:05:47;;;;;;;36.50;20.55;;;282.50;2278.40;;;;;;5035931;28;20029;-80
2022/10/05 02:08:25;;;;;;;23.65;13.77;;;307.60;2304.00;;;;;;5035632;28;20030;-80
2022/10/05 02:11:08;;;;;;;17.55;8.55;;;282.40;2278.40;;;;;;5047782;28;20037;-80
2022/10/05 02:13:39;;;;;;;13.38;8.27;;;282.50;2278.40;;;;;;5081244;28;20017;-81
2022/10/05 02:16:18;;;;;;;13.30;8.57;;;282.30;2278.40;;;;;;5080321;28;20012;-80
2022/10/05 02:19:32;;;;;;;17.77;9.15;;;282.40;2278.40;;;;;;5080775;28;20100;-80
2022/10/05 02:22:04;;;;;;;18.00;10.05;;;282.30;2278.40;;;;;;5070018;28;20036;-82
2022/10/05 02:24:37;;;;;;;13.52;9.32;;;282.30;2278.40;;;;;;5055571;28;20391;-82
2022/10/05 02:27:05;;;;;;;16.70;9.50;;;282.40;2278.40;;;;;;5055386;28;20028;-83
2022/10/05 02:29:34;;;;;;;13.60;9.27;;;282.30;2278.40;;;;;;5055463;28;20033;-82
2022/10/05 02:32:09;;;;;;;16.63;8.70;;;282.10;2278.40;;;;;;5056271;28;20021;-82
2022/10/05 02:34:40;;;;;;;12.73;8.98;;;282.00;2278.40;;;;;;5055388;28;20429;-82
2022/10/05 02:37:33;;;;;;;14.55;9.05;;;282.00;2278.40;;;;;;5055693;28;20020;-82
2022/10/05 02:40:22;;;;;;;14.82;8.07;;;282.10;2278.40;;;;;;5055665;28;20025;-82
2022/10/05 02:43:29;;;;;;;18.75;10.05;;;282.10;2278.40;;;;;;5055110;28;20033;-82
2022/10/05 02:45:58;;;;;;;17.58;10.20;;;282.20;2278.40;;;;;;5013493;28;20076;-82
2022/10/05 02:48:47;;;;;;;17.48;9.68;;;282.20;2278.40;;;;;;5045642;28;20033;-82
2022/10/05 02:51:21;;;;;;;16.27;10.18;;;282.10;2278.40;;;;;;5053855;28;20037;-83
2022/10/05 02:54:13;;;;;;;13.52;9.05;;;281.80;2278.40;;;;;;5054859;28;20052;-82
2022/10/05 02:56:54;;;;;;;15.25;8.05;;;281.90;2278.40;;;;;;5047541;28;20406;-82
2022/10/05 02:59:28;;;;;;;17.70;9.52;;;281.90;2278.40;;;;;;5054350;28;20108;-82
2022/10/05 03:02:09;;;;;;;12.23;7.90;;;281.60;2278.40;;;;;;5054969;28;20029;-83
2022/10/05 03:04:49;;;;;;;11.27;7.43;;;281.70;2278.40;;;;;;5054552;28;20040;-82
2022/10/05 03:07:26;;;;;;;10.38;7.10;;;281.70;2278.40;;;;;;5054387;28;20024;-83
2022/10/05 03:10:10;;;;;;;10.27;6.32;;;281.80;2278.40;;;;;;5055517;28;20095;-82
2022/10/05 03:12:55;;;;;;;10.25;6.43;;;281.90;2278.40;;;;;;5054018;28;20142;-82
2022/10/05 03:15:59;;;;;;;10.75;5.47;;;281.90;2278.40;;;;;;5054289;28;20084;-83
2022/10/05 03:18:48;;;;;;;10.40;6.55;;;282.00;2278.40;;;;;;5054177;28;20106;-82
2022/10/05 03:22:05;;;;;;;15.65;8.45;;;281.90;2278.40;;;;;;5054153;28;20124;-83
2022/10/05 03:24:58;;;;;;;14.48;9.82;;;281.90;2278.40;;;;;;5020840;28;20047;-82
2022/10/05 03:27:28;;;;;;;14.70;9.90;;;282.00;2278.40;;;;;;5053773;28;20035;-82
2022/10/05 03:30:25;;;;;;;17.95;11.82;;;282.00;2278.40;;;;;;5052139;28;20035;-82
2022/10/05 03:32:54;;;;;;;19.92;10.98;;;281.70;2278.40;;;;;;5053961;28;20040;-82
2022/10/05 03:35:32;;;;;;;15.70;10.40;;;256.80;2252.80;;;;;;5052403;28;20132;-82
2022/10/05 03:38:11;;;;;;;15.63;9.05;;;256.90;2252.80;;;;;;5053951;28;20503;-82
2022/10/05 03:41:03;;;;;;;14.70;9.13;;;256.80;2252.80;;;;;;5053528;28;20132;-82
2022/10/05 03:43:56;;;;;;;13.27;8.93;;;281.60;2278.40;;;;;;5053803;28;20021;-81
2022/10/05 03:46:29;;;;;;;11.90;7.67;;;;;;;;;;5053734;28;20033;-81
2022/10/05 03:48:58;;;;;;;12.32;8.10;;;256.60;2252.80;;;;;;5053416;28;20262;-81
2022/10/05 03:51:31;;;;;;;11.45;7.80;;;256.60;2252.80;;;;;;5053484;28;20040;-81
2022/10/05 03:54:20;;;;;;;;;;;256.80;2252.80;;;;;;5053622;28;20037;-81
2022/10/05 03:56:56;;;;;;;9.50;7.07;;;256.80;2252.80;;;;;;5044984;28;19905;-81
2022/10/05 03:59:34;;;;;;;18.05;9.27;;;256.50;2252.80;;;;;;5053082;28;22115;-83
2022/10/05 04:02:05;;;;;;;16.20;9.20;;;256.30;2252.80;;;;;;5069128;28;20029;-83
2022/10/05 04:04:42;;;;;;;17.45;9.55;;;;;;;;;;5052688;28;20032;-82
2022/10/05 04:07:11;;;;;;;16.67;11.30;;;;;;;;;;5053179;28;20116;-83
2022/10/05 04:09:40;;;;;;;14.57;7.78;;;;;;;;;;5052473;28;20363;-83
2022/10/05 04:12:21;;;;;;;14.25;8.18;;;;;;;;;;5053070;28;20466;-82
2022/10/05 04:14:53;;;;;;;13.63;7.93;;;;;;;;;;5052810;28;20551;-83
2022/10/05 04:17:45;;;;;;;17.90;8.50;;;;;;;;;;5052647;28;20175;-83
2022/10/05 04:20:38;;;;;;;17.85;9.90;;;;;;;;;;5051466;28;20041;-83
2022/10/05 04:23:18;;;;;;;17.20;9.68;;;;;;;;;;5052792;28;20501;-82
2022/10/05 04:26:10;;;;;;;24.13;13.48;;;;;;;;;;5053003;28;20021;-82
2022/10/05 04:28:48;;;;;;;20.00;12.65;;;;;;;;;;5049349;28;20485;-82
2022/10/05 04:31:19;;;;;;;16.75;10.43;;;;;;;;;;5052539;28;20187;-82
2022/10/05 04:33:49;;;;;;;15.73;9.93;;;;;;;;;;5052876;28;20024;-82
2022/10/05 04:36:21;;;;;;;19.48;11.60;;;;;;;;;;5052712;28;20025;-81
2022/10/05 04:38:56;;;;;;;19.50;13.25;;;;;;;;;;5052761;28;20025;-82
2022/10/05 04:41:35;;;;;;;26.17;16.63;;;;;;;;;;5052749;28;20028;-82
2022/10/05 04:44:07;;;;;;;47.17;21.15;;;;;;;;;;5052368;28;20032;-83
2022/10/05 04:46:40;;;;;;;53.03;23.75;;;;;;;;;;5052595;28;20024;-83
2022/10/05 04:49:22;;;;;;;51.15;22.13;;;;;;;;;;5054062;28;20391;-82
2022/10/05 04:51:57;;;;;;;35.58;18.83;;;;;;;;;;5052357;28;20029;-82
2022/10/05 04:54:35;;;;;;;29.45;14.60;;;;;;;;;;5052656;28;20508;-84
2022/10/05 04:57:05;;;;;;;28.33;16.92;;;;;;;;;;5052465;28;20025;-84
2022/10/05 04:59:57;;;;;;;30.95;17.73;;;;;;;;;;5052063;28;20029;-84
2022/10/05 05:02:50;;;;;;;57.50;31.00;;;;;;;;;;5052561;28;20025;-83
2022/10/05 05:05:22;;;;;;;65.07;33.88;;;;;;;;;;5052163;28;20025;-82
2022/10/05 05:08:07;;;;;;;39.38;23.95;;;;;;;;;;5052070;28;20021;-82
2022/10/05 05:10:33;;;;;;;25.00;13.57;;;;;;;;;;5052264;28;20024;-82
2022/10/05 05:13:15;;;;;;;22.38;14.57;;;;;;;;;;5051848;28;20363;-83
2022/10/05 05:15:46;;;;;;;24.48;16.08;;;;;;;;;;5052404;28;20056;-82
2022/10/05 05:18:23;;;;;;;30.05;17.70;;;;;;;;;;5051456;28;20135;-83
2022/10/05 05:21:05;;;;;;;19.00;13.48;;;;;;;;;;5051486;28;20471;-83
2022/10/05 05:23:31;;;;;;;21.05;13.02;;;;;;;;;;5051157;28;20040;-84
2022/10/05 05:26:39;;;;;;;19.48;12.55;;;231.30;2252.80;;;;;;5052125;28;20028;-83
2022/10/05 05:29:24;;;;;;;20.58;13.10;;;231.30;2252.80;;;;;;5037983;28;20057;-84
2022/10/05 05:32:27;;;;;;;20.33;12.95;;;256.00;2252.80;;;;;;5054129;28;20028;-83
2022/10/05 05:35:16;;;;;;;;;;;256.20;2252.80;;;;;;5053990;28;20393;-83
2022/10/05 05:38:19;;;;;;;30.75;13.52;;;256.40;2252.80;;;;;;5044090;28;19911;-83
2022/10/05 05:40:55;;;;;;;30.77;17.33;;;256.40;2252.80;;;;;;5036133;28;20036;-83
2022/10/05 05:43:32;;;;;;;33.88;19.73;;;256.50;2252.80;;;;;;5054384;28;20082;-83
2022/10/05 05:46:39;;;;;;;32.92;22.27;;;256.50;2252.80;;;;;;5054739;28;20048;-82
2022/10/05 05:49:28;;;;;;;32.75;19.60;;;256.60;2252.80;;;;;;5044015;28;20032;-83
2022/10/05 05:51:59;;;;;;;29.25;15.50;;;256.20;2252.80;;;;;;5024975;28;20486;-83
2022/10/05 05:54:35;;;;;;;42.00;17.17;;;256.20;2252.80;;;;;;5054150;28;20024;-82
2022/10/05 05:57:22;;;;;;;26.60;17.02;;;256.30;2252.80;;;;;;5054616;28;20047;-83
2022/10/05 06:00:41;;;;;;;26.73;16.58;;;256.60;2252.80;;;;;;5054524;28;20059;-82
2022/10/05 06:03:17;;;;;;;33.15;17.42;;;256.60;2252.80;;;;;;5051021;28;20494;-83
2022/10/05 06:05:51;;;;;;;28.65;15.43;;;256.70;2252.80;;;;;;5054411;28;20024;-83
2022/10/05 06:08:34;;;;;;;21.65;16.00;;;256.70;2252.80;;;;;;5055175;28;20074;-82
2022/10/05 06:11:15;;;;;;;27.13;17.45;;;256.80;2252.80;;;;;;5054198;28;20021;-82
2022/10/05 06:13:46;;;;;;;28.20;18.98;;;281.60;2278.40;;;;;;5055255;28;20037;-82
2022/10/05 06:19:13;;;;;;;27.20;17.73;;;281.60;2278.40;;;;;;5111298;27;20411;-79
2022/10/05 06:21:57;;;;;;;24.20;17.65;;;281.70;2278.40;;;;;;5110151;28;20502;-78
2022/10/05 06:24:26;;;;;;;28.08;18.08;;;256.90;2252.80;;;;;;5110535;28;20032;-79
2022/10/05 06:27:07;;;;;;;26.55;17.90;;;256.90;2252.80;;;;;;5110234;28;20105;-78
2022/10/05 06:29:57;;;;;;;26.55;16.40;;;256.80;2252.80;;;;;;5109899;28;20019;-78
2022/10/05 06:32:49;;;;;;;23.63;16.08;;;256.90;2252.80;;;;;;5110060;28;20031;-78
2022/10/05 06:35:42;;;;;;;22.85;13.88;;;281.60;2278.40;;;;;;5109942;28;20084;-78
2022/10/05 06:38:43;;;;;;;21.98;13.65;;;281.90;2278.40;;;;;;5109989;28;20498;-78
2022/10/05 06:41:37;;;;;;;22.45;14.15;;;282.10;2278.40;;;;;;5106020;28;20062;-79
2022/10/05 06:44:15;;;;;;;17.08;12.02;;;282.20;2278.40;;;;;;5109634;28;20024;-79
2022/10/05 06:46:59;;;;;;;21.30;13.52;;;282.20;2278.40;;;;;;5110160;28;20034;-79
2022/10/05 06:49:35;;;;;;;23.67;13.20;;;282.30;2278.40;;;;;;5109762;28;20027;-79
2022/10/05 06:52:12;;;;;;;22.75;12.40;;;282.40;2278.40;;;;;;5111487;28;20020;-78
2022/10/05 06:54:52;;;;;;;22.08;11.43;;;282.40;2278.40;;;;;;5109804;28;20027;-78
2022/10/05 06:57:31;;;;;;;22.23;15.05;;;282.20;2278.40;;;;;;5109402;28;20027;-78
2022/10/05 07:00:03;;;;;;;22.92;15.70;;;282.40;2278.40;;;;;;5105310;28;20414;-78
2022/10/05 07:02:38;;;;;;;25.33;15.18;;;282.50;2278.40;;;;;;5088851;28;20028;-78
2022/10/05 07:05:09;;;;;;;16.55;10.73;;;307.20;2304.00;;;;;;5087814;28;20047;-79
2022/10/05 07:07:50;;;;;;;12.73;9.02;;;307.20;2304.00;;;;;;5089398;28;20028;-78
2022/10/05 07:10:32;;;;;;;18.40;10.25;;;282.50;2278.40;;;;;;5088886;28;20036;-77
2022/10/05 07:13:09;;;;;;;14.80;9.60;;;307.20;2304.00;;;;;;5089224;28;20028;-78
2022/10/05 07:15:50;;;;;;;16.13;8.73;;;307.30;2304.00;;;;;;5089083;28;20478;-79
2022/10/05 07:18:31;;;;;;;15.18;8.48;;;307.30;2304.00;;;;;;5089780;28;20119;-78
2022/10/05 07:21:25;;;;;;;15.90;9.18;;;307.40;2304.00;;;;;;5088766;28;20082;-78
2022/10/05 07:24:05;;;;;;;11.82;7.63;;;307.60;2304.00;;;;;;5088450;28;20025;-81
2022/10/05 07:26:36;;;;;;;11.98;7.60;;;307.60;2304.00;;;;;;5088618;28;20024;-78
2022/10/05 07:29:23;;;;;;;9.95;7.18;;;307.80;2304.00;;;;;;5083162;28;20115;-79
2022/10/05 07:31:49;;;;;;;19.88;7.97;;;307.90;2304.00;;;;;;5074957;28;20021;-79
2022/10/05 07:34:32;;;;;;;10.15;6.15;;;308.10;2304.00;;;;;;5075123;28;20028;-78
2022/10/05 07:40:08;;;;;;;8.82;5.80;;;332.90;2329.60;;;;;;5075760;28;20074;-78
2022/10/05 07:43:03;;;;;;;13.80;6.22;;;333.20;2329.60;;;;;;5075026;28;20111;-78
2022/10/05 07:45:32;;;;;;;10.90;6.80;;;333.20;2329.60;;;;;;5074708;28;20464;-78
2022/10/05 07:48:20;;;;;;;15.98;6.78;;;333.30;2329.60;;;;;;5074949;28;20032;-78
2022/10/05 07:51:00;;;;;;;10.98;6.05;;;333.40;2329.60;;;;;;5074870;28;20147;-78
2022/10/05 07:53:59;;;;;;;11.70;7.07;;;333.50;2329.60;;;;;;5074558;28;20414;-77
2022/10/05 07:56:40;;;;;;;11.75;6.32;;;333.60;2329.60;;;;;;5074878;28;20025;-79
2022/10/05 07:59:31;;;;;;;8.23;5.13;;;333.70;2329.60;;;;;;5074683;28;20036;-78
2022/10/05 08:02:11;;;;;;;11.98;7.22;;;358.50;2329.60;;;;;;5072673;28;20044;-77
2022/10/05 08:04:47;;;;;;;7.45;4.43;;;358.60;2329.60;;;;;;5074650;28;20036;-77
2022/10/05 08:07:16;;;;;;;8.68;4.70;;;358.60;2329.60;;;;;;5075214;28;20077;-77
2022/10/05 08:09:58;;;;;;;9.85;5.20;;;358.80;2329.60;;;;;;5075751;28;20103;-77
2022/10/05 08:12:32;;;;;;;8.68;5.20;;;358.80;2329.60;;;;;;5074425;28;20074;-77
2022/10/05 08:15:20;;;;;;;7.30;4.78;;;358.90;2329.60;;;;;;5074180;28;20388;-77
2022/10/05 08:18:11;;;;;;;9.27;4.82;;;359.00;2329.60;;;;;;5075163;28;20087;-77
2022/10/05 08:20:48;;;;;;;9.20;4.20;;;359.10;2329.60;;;;;;5073986;28;20048;-77
2022/10/05 08:23:37;;;;;;;7.78;4.57;;;359.10;2329.60;;;;;;5075576;28;20078;-78
2022/10/05 08:26:15;;;;;;;8.30;5.20;;;359.10;2329.60;;;;;;5074090;28;20051;-77
2022/10/05 08:28:52;;;;;;;6.47;4.35;;;384.00;2329.60;;;;;;5073849;28;20067;-77
2022/10/05 08:31:50;;;;;;;11.60;5.05;;;384.20;2329.60;;;;;;5074092;28;20024;-80
2022/10/05 08:34:46;;;;;;;9.65;4.80;;;384.40;2329.60;;;;;;5064592;28;20119;-77
2022/10/05 08:37:26;;;;;;;8.20;4.20;;;384.40;2329.60;;;;;;5075589;28;20032;-76
2022/10/05 08:40:21;;;;;;;10.38;4.93;;;384.40;2329.60;;;;;;5078390;28;20032;-80
2022/10/05 08:43:05;;;;;;;12.27;4.50;;;384.40;2329.60;;;;;;5100770;28;20053;-77
2022/10/05 08:45:49;;;;;;;7.45;4.47;;;384.40;2329.60;;;;;;5093345;28;20024;-77
2022/10/05 08:48:34;;;;;;;7.15;4.25;;;384.50;2329.60;;;;;;5079630;28;20024;-81
2022/10/05 08:51:31;;;;;;;6.88;4.10;;;384.70;2329.60;;;;;;5080981;28;20028;-76
2022/10/05 08:54:03;;;;;;;8.30;4.47;;;384.80;2329.60;;;;;;5078552;28;20024;-79
2022/10/05 08:57:23;;;;;;;8.55;4.80;;;409.60;2355.20;;;;;;5085652;28;20486;-78
2022/10/05 09:00:22;;;;;;;6.43;3.70;;;384.90;2329.60;;;;;;5051346;28;20137;-77
2022/10/05 09:03:14;;;;;;;8.63;3.95;;;409.60;2355.20;;;;;;5092992;28;20040;-76
2022/10/05 09:05:53;;;;;;;6.75;4.30;;;409.70;2355.20;;;;;;5074874;28;20020;-77
2022/10/05 09:08:40;;;;;;;6.63;4.00;;;409.60;2355.20;;;;;;5080074;28;20039;-78
2022/10/05 09:11:36;;;;;;;9.80;4.97;;;409.70;2355.20;;;;;;5080810;28;20051;-75
2022/10/05 09:14:25;;;;;;;11.82;6.80;;;409.80;2355.20;;;;;;5076050;28;20126;-77
2022/10/05 09:17:00;;;;;;;8.10;4.80;;;409.90;2355.20;;;;;;5093345;28;20028;-79
2022/10/05 09:19:50;;;;;;;10.18;5.25;;;410.00;2355.20;;;;;;5094193;28;20028;-76
2022/10/05 09:22:30;;;;;;;7.43;3.90;;;410.20;2355.20;;;;;;5080266;28;20035;-77
2022/10/05 09:25:03;;;;;;;7.30;3.72;;;410.20;2355.20;;;;;;5092555;28;20028;-78
2022/10/05 09:27:41;;;;;;;;;;;410.20;2355.20;;;;;;5076492;28;20033;-79
2022/10/05 09:30:29;;;;;;;9.55;5.45;;;410.30;2355.20;;;;;;5088491;28;19909;-77
2022/10/05 09:33:37;;;;;;;8.98;5.80;;;410.50;2355.20;;;;;;5072546;28;20067;-78
2022/10/05 09:36:26;;;;;;;10.68;6.22;;;435.30;2355.20;;;;;;5076346;28;20042;-77
2022/10/05 09:39:10;;;;;;;10.70;4.72;;;435.30;2355.20;;;;;;5093469;28;20086;-78
2022/10/05 09:42:02;;;;;;;23.90;15.60;;;435.20;2355.20;;;;;;5091328;28;20039;-77
2022/10/05 09:44:39;;;;;;;16.02;11.68;;;435.50;2355.20;;;;;;5075454;28;20042;-76
2022/10/05 09:47:17;;;;;;;12.70;9.50;;;435.70;2355.20;;;;;;5079106;28;20082;-76
2022/10/05 09:50:11;;;;;;;9.15;4.43;;;436.00;2355.20;;;;;;5090171;28;20385;-79
2022/10/05 09:52:43;;;;;;;8.80;4.05;;;460.80;2380.80;;;;;;5096439;28;20023;-75
2022/10/05 09:55:22;;;;;;;9.18;3.92;;;460.80;2380.80;;;;;;5102803;28;20030;-77
2022/10/05 09:58:33;;;;;;;6.03;3.95;;;460.80;2380.80;;;;;;5108038;28;20459;-76
2022/10/05 10:01:19;;;;;;;6.78;3.17;;;460.80;2380.80;;;;;;5063109;28;20050;-75
2022/10/05 10:04:00;;;;;;;6.65;3.45;;;436.10;2355.20;;;;;;5089293;28;20120;-76
2022/10/05 10:06:38;;;;;;;8.98;4.10;;;436.10;2355.20;;;;;;5089304;28;20563;-78
2022/10/05 10:09:25;;;;;;;5.82;3.80;;;460.90;2380.80;;;;;;5073910;28;20069;-76
2022/10/05 10:12:33;;;;;;;7.90;3.90;;;460.90;2380.80;;;;;;5108692;28;20020;-78
2022/10/05 10:15:26;;;;;;;8.15;3.80;;;460.90;2380.80;;;;;;5021970;28;20069;-76
2022/10/05 10:18:03;;;;;;;;;;;461.10;2380.80;;;;;;5091949;28;20054;-77
2022/10/05 10:20:38;;;;;;;10.90;4.38;;;;;;;;;;5083377;28;19909;-76
2022/10/05 10:23:04;;;;;;;9.75;4.10;;;461.60;2380.80;;;;;;5085240;28;20028;-77
2022/10/05 10:25:33;;;;;;;7.15;4.22;;;;;;;;;;5075202;28;20028;-77
2022/10/05 10:28:18;;;;;;;7.68;4.70;;;;;;;;;;5088666;28;20024;-78
2022/10/05 10:30:44;;;;;;;8.48;5.20;;;;;;;;;;5083896;28;20035;-78
2022/10/05 10:33:44;;;;;;;8.75;5.63;;;486.70;2380.80;;;;;;5108944;28;20016;-78
2022/10/05 10:36:11;;;;;;;7.28;4.53;;;;;;;;;;5076967;28;20020;-78
2022/10/05 10:38:53;;;;;;;9.18;4.80;;;;;;;;;;5093030;28;20071;-76
2022/10/05 10:41:54;;;;;;;7.10;4.57;;;461.50;2380.80;;;;;;5090375;28;20093;-80
2022/10/05 10:44:35;;;;;;;7.35;4.75;;;461.30;2380.80;;;;;;5079011;28;20024;-79
2022/10/05 10:47:32;;;;;;;9.77;4.47;;;461.20;2380.80;;;;;;5091950;28;20115;-79
2022/10/05 10:50:17;;;;;;;8.05;4.10;;;;;;;;;;5075897;28;20094;-79
2022/10/05 10:52:46;;;;;;;12.57;7.45;;;;;;;;;;5091790;28;20021;-79
2022/10/05 10:55:24;;;;;;;12.02;9.20;;;;;;;;;;5077831;28;20021;-79
2022/10/05 10:58:26;;;;;;;8.68;5.70;;;461.10;2380.80;;;;;;5087831;28;20041;-78
2022/10/05 11:01:19;;;;;;;7.60;5.15;;;461.00;2380.80;;;;;;5083074;28;20138;-79
2022/10/05 11:03:48;;;;;;;12.45;4.78;;;460.90;2380.80;;;;;;5075229;28;20037;-81
2022/10/05 11:06:15;;;;;;;13.38;6.18;;;460.90;2380.80;;;;;;5090576;28;20478;-78
2022/10/05 11:09:16;;;;;;;11.20;5.28;;;461.00;2380.80;;;;;;5085299;28;20028;-80
2022/10/05 11:12:10;;;;;;;9.45;4.65;;;461.00;2380.80;;;;;;5076665;28;20460;-78
2022/10/05 11:14:55;;;;;;;15.23;5.55;;;461.10;2380.80;;;;;;5084321;28;20035;-79
2022/10/05 11:17:49;;;;;;;5.30;3.15;;;461.10;2380.80;;;;;;5079847;28;20079;-78
2022/10/05 11:20:41;;;;;;;8.35;3.08;;;461.10;2380.80;;;;;;5082575;28;20103;-77
2022/10/05 11:23:38;;;;;;;13.80;5.72;;;461.10;2380.80;;;;;;5094888;28;20016;-81
2022/10/05 11:26:25;;;;;;;8.75;4.28;;;461.20;2380.80;;;;;;5096915;28;20078;-80
2022/10/05 11:29:18;;;;;;;6.75;4.18;;;461.30;2380.80;;;;;;5096598;28;20032;-81
2022/10/05 11:32:03;;;;;;;11.40;4.72;;;461.40;2380.80;;;;;;5095442;28;20032;-78
2022/10/05 11:34:47;;;;;;;16.27;6.00;;;461.40;2380.80;;;;;;5111053;28;20025;-79
2022/10/05 11:37:47;;;;;;;9.23;5.05;;;461.50;2380.80;;;;;;5094554;28;20028;-79
2022/10/05 11:40:15;;;;;;;8.65;4.20;;;;;;;;;;5082333;28;20068;-79
2022/10/05 11:42:44;;;;;;;10.35;4.70;;;486.60;2380.80;;;;;;5094782;28;20020;-78
2022/10/05 11:45:35;;;;;;;7.43;4.45;;;;;;;;;;5080188;28;20017;-78
2022/10/05 11:48:19;;;;;;;8.00;3.30;;;;;;;;;;5080005;28;20107;-77
2022/10/05 11:51:04;;;;;;;8.18;5.03;;;;;;;;;;5094739;28;20028;-77
2022/10/05 11:53:30;;;;;;;9.88;6.55;;;;;;;;;;5094728;28;20028;-77
2022/10/05 11:56:12;;;;;;;7.18;5.55;;;;;;;;;;5075699;28;20082;-78
2022/10/05 11:58:50;;;;;;;9.05;5.13;;;;;;;;;;5090656;28;20028;-77
2022/10/05 12:01:22;;;;;;;7.55;4.75;;;;;;;;;;5092098;28;20043;-78
2022/10/05 12:03:48;;;;;;;8.88;4.95;;;;;;;;;;5093968;28;20138;-77
2022/10/05 12:06:20;;;;;;;4.95;3.50;;;;;;;;;;5078526;28;20376;-77
2022/10/05 12:08:46;;;;;;;4.25;2.60;;;;;;;;;;5090867;28;20028;-77
2022/10/05 12:11:16;;;;;;;7.00;3.30;;;;;;;;;;5080248;28;20093;-77
2022/10/05 12:13:57;;;;;;;7.65;3.95;;;;;;;;;;5085231;28;20041;-78
2022/10/05 12:16:26;;;;;;;5.97;3.45;;;512.90;2355.20;;;;;;5090164;28;20062;-77
2022/10/05 12:19:01;;;;;;;6.80;3.30;;;;;;;;;;5093773;28;20040;-77
2022/10/05 12:21:38;;;;;;;6.80;4.25;;;563.20;2278.40;;;;;;5094112;28;20024;-77
2022/10/05 12:24:20;;;;;;;7.68;2.97;;;563.20;2227.20;;;;;;5080278;28;20021;-78
2022/10/05 12:26:49;;;;;;;5.65;3.33;;;;;;;;;;5075295;28;20052;-77
2022/10/05 12:29:15;;;;;;;10.35;4.93;;;;;;;;;;5075332;28;20495;-77
2022/10/05 12:31:47;;;;;;;8.63;5.80;;;;;;;;;;5073982;28;20035;-78
2022/10/05 12:34:22;;;;;;;6.55;5.20;;;;;;;;;;5075027;28;20024;-78
2022/10/05 12:37:07;;;;;;;11.40;8.82;;;;;;;;;;5073821;28;20028;-78
2022/10/05 12:40:05;;;;;;;12.07;6.78;;;589.10;2150.40;;;;;;5073641;28;20109;-78
2022/10/05 12:42:54;;;;;;;5.43;2.92;;;589.20;2150.40;;;;;;5073747;28;20106;-79
2022/10/05 12:45:29;;;;;;;8.75;4.78;;;;;;;;;;5063964;28;20614;-79
2022/10/05 12:48:04;;;;;;;4.72;2.80;;;;;;;;;;5074399;28;20380;-78
2022/10/05 12:50:52;;;;;;;6.63;3.10;;;;;;;;;;5073536;28;20020;-77
2022/10/05 12:53:40;;;;;;;4.95;2.30;;;589.30;1920.00;;;;;;5073209;28;20024;-79
2022/10/05 12:56:32;;;;;;;4.03;1.88;;;589.40;1868.80;;;;;;5073601;28;20028;-79
2022/10/05 12:59:03;;;;;;;5.15;2.30;;;;;;;;;;5074611;28;20152;-79
2022/10/05 13:01:34;;;;;;;3.78;2.03;;;;;;;;;;5074388;28;20013;-78
2022/10/05 13:04:10;;;;;;;4.18;2.33;;;;;;;;;;5074618;28;20472;-80
2022/10/05 13:06:42;;;;;;;5.10;2.50;;;;;;;;;;5073569;28;20413;-79
2022/10/05 13:09:14;;;;;;;3.28;2.10;;;;;;;;;;5072968;28;20025;-79
2022/10/05 13:11:48;;;;;;;4.15;1.95;;;;;;;;;;5073156;28;20085;-79
2022/10/05 13:14:20;;;;;;;4.95;2.70;;;;;;;;;;5074146;28;20021;-79
2022/10/05 13:16:50;;;;;;;6.78;3.40;;;;;;;;;;5072905;28;20077;-79
2022/10/05 13:19:23;;;;;;;6.40;3.28;;;;;;;;;;5073056;28;20036;-79
2022/10/05 13:21:55;;;;;;;6.00;2.55;;;;;;;;;;5072746;28;20020;-79
2022/10/05 13:24:35;;;;;;;5.47;2.58;;;;;;;;;;5074217;28;20025;-79
2022/10/05 13:27:12;;;;;;;5.20;3.35;;;614.80;1920.00;;;;;;5072617;28;20044;-80
2022/10/05 13:29:54;;;;;;;5.07;2.70;;;614.80;1945.60;;;;;;5072599;28;20577;-79
2022/10/05 13:32:29;;;;;;;6.10;2.30;;;;;;;;;;5074087;28;20028;-78
2022/10/05 13:34:55;;;;;;;4.45;2.13;;;;;;;;;;5072608;28;20169;-79
2022/10/05 13:37:31;;;;;;;4.35;2.22;;;;;;;;;;5073392;28;20056;-80
2022/10/05 13:39:57;;;;;;;6.97;2.30;;;;;;;;;;5072335;28;20032;-79
2022/10/05 13:42:41;;;;;;;4.13;2.15;;;;;;;;;;5072096;28;20027;-80
2022/10/05 13:45:19;;;;;;;5.90;2.92;;;;;;;;;;5072579;28;20078;-79
2022/10/05 13:47:48;;;;;;;5.35;2.63;;;;;;;;;;5072638;28;20115;-80
2022/10/05 13:50:20;;;;;;;8.02;2.55;;;;;;;;;;5072282;28;20074;-80
2022/10/05 13:52:54;;;;;;;5.10;2.42;;;;;;;;;;5073821;28;20380;-79
2022/10/05 13:55:32;;;;;;;6.05;4.53;;;;;;;;;;5072460;28;20037;-79
2022/10/05 13:58:05;;;;;;;8.52;3.03;;;;;;;;;;5072157;28;20105;-79
2022/10/05 14:00:33;;;;;;;8.00;4.38;;;;;;;;;;5074068;28;20048;-79
2022/10/05 14:03:00;;;;;;;5.05;2.75;;;;;;;;;;5073532;28;20028;-79